sensor_id;sensor_type;location;lat;lon;timestamp;temperature;humidity
67870;DHT22;54673;52.262;6.830;2023-12-20T00:01:17;6.80;99.90
67870;DHT22;54673;52.262;6.830;2023-12-20T00:03:43;6.80;99.90
67870;DHT22;54673;52.262;6.830;2023-12-20T00:06:09;6.70;99.90
67870;DHT22;54673;52.262;6.830;2023-12-20T00:08:35;6.70;99.90
67870;DHT22;54673;52.262;6.830;2023-12-20T00:11:00;7.40;99.90
67870;DHT22;54673;52.262;6.830;2023-12-20T00:13:26;6.70;99.90
67870;DHT22;54673;52.262;6.830;2023-12-20T00:15:51;8.00;99.90
67870;DHT22;54673;52.262;6.830;2023-12-20T00:18:17;6.60;99.90
67870;DHT22;54673;52.262;6.830;2023-12-20T00:20:43;5.90;99.90
67870;DHT22;54673;52.262;6.830;2023-12-20T00:23:08;7.80;99.90
67870;DHT22;54673;52.262;6.830;2023-12-20T00:25:34;7.40;99.90
67870;DHT22;54673;52.262;6.830;2023-12-20T00:28:00;6.60;99.90
67870;DHT22;54673;52.262;6.830;2023-12-20T00:30:26;6.80;99.90
67870;DHT22;54673;52.262;6.830;2023-12-20T00:32:52;7.40;99.90
67870;DHT22;54673;52.262;6.830;2023-12-20T00:35:18;7.60;99.90
67870;DHT22;54673;52.262;6.830;2023-12-20T00:37:43;6.50;99.90
67870;DHT22;54673;52.262;6.830;2023-12-20T00:40:09;6.50;99.90
67870;DHT22;54673;52.262;6.830;2023-12-20T00:42:35;6.50;99.90
67870;DHT22;54673;52.262;6.830;2023-12-20T00:45:04;6.50;99.90
67870;DHT22;54673;52.262;6.830;2023-12-20T00:47:30;6.50;99.90
67870;DHT22;54673;52.262;6.830;2023-12-20T00:49:57;6.40;99.90
67870;DHT22;54673;52.262;6.830;2023-12-20T00:52:23;6.50;99.90
67870;DHT22;54673;52.262;6.830;2023-12-20T00:54:49;6.40;99.90
67870;DHT22;54673;52.262;6.830;2023-12-20T00:57:14;7.00;99.90
67870;DHT22;54673;52.262;6.830;2023-12-20T00:59:40;6.40;99.90
67870;DHT22;54673;52.262;6.830;2023-12-20T01:02:06;6.50;99.90
67870;DHT22;54673;52.262;6.830;2023-12-20T01:04:32;6.40;99.90
67870;DHT22;54673;52.262;6.830;2023-12-20T01:06:57;6.30;99.90
67870;DHT22;54673;52.262;6.830;2023-12-20T01:09:23;6.40;99.90
67870;DHT22;54673;52.262;6.830;2023-12-20T01:11:52;6.40;99.90
67870;DHT22;54673;52.262;6.830;2023-12-20T01:14:18;7.10;99.90
67870;DHT22;54673;52.262;6.830;2023-12-20T01:16:43;6.30;99.90
67870;DHT22;54673;52.262;6.830;2023-12-20T01:19:09;7.10;99.90
67870;DHT22;54673;52.262;6.830;2023-12-20T01:21:34;7.50;99.90
67870;DHT22;54673;52.262;6.830;2023-12-20T01:24:00;6.90;99.90
67870;DHT22;54673;52.262;6.830;2023-12-20T01:26:26;7.60;99.90
67870;DHT22;54673;52.262;6.830;2023-12-20T01:28:51;7.70;99.90
67870;DHT22;54673;52.262;6.830;2023-12-20T01:31:17;7.80;99.90
67870;DHT22;54673;52.262;6.830;2023-12-20T01:33:45;7.60;99.90
67870;DHT22;54673;52.262;6.830;2023-12-20T01:36:11;6.10;99.90
67870;DHT22;54673;52.262;6.830;2023-12-20T01:38:37;6.40;99.90
67870;DHT22;54673;52.262;6.830;2023-12-20T01:41:03;6.20;99.90
67870;DHT22;54673;52.262;6.830;2023-12-20T01:43:29;6.20;99.90
67870;DHT22;54673;52.262;6.830;2023-12-20T01:45:57;6.20;99.90
67870;DHT22;54673;52.262;6.830;2023-12-20T01:48:23;6.90;99.90
67870;DHT22;54673;52.262;6.830;2023-12-20T01:50:50;6.10;99.90
67870;DHT22;54673;52.262;6.830;2023-12-20T01:53:17;6.10;99.90
67870;DHT22;54673;52.262;6.830;2023-12-20T01:55:44;6.10;99.90
67870;DHT22;54673;52.262;6.830;2023-12-20T01:58:11;7.60;99.90
67870;DHT22;54673;52.262;6.830;2023-12-20T02:00:37;6.80;99.90
67870;DHT22;54673;52.262;6.830;2023-12-20T02:03:04;6.00;99.90
67870;DHT22;54673;52.262;6.830;2023-12-20T02:05:30;6.10;99.90
67870;DHT22;54673;52.262;6.830;2023-12-20T02:07:56;6.60;99.90
67870;DHT22;54673;52.262;6.830;2023-12-20T02:10:22;7.10;99.90
67870;DHT22;54673;52.262;6.830;2023-12-20T02:12:48;6.00;99.90
67870;DHT22;54673;52.262;6.830;2023-12-20T02:15:14;6.00;99.90
67870;DHT22;54673;52.262;6.830;2023-12-20T02:17:39;6.00;99.90
67870;DHT22;54673;52.262;6.830;2023-12-20T02:20:06;6.00;99.90
67870;DHT22;54673;52.262;6.830;2023-12-20T02:22:32;6.00;99.90
67870;DHT22;54673;52.262;6.830;2023-12-20T02:24:57;5.90;99.90
67870;DHT22;54673;52.262;6.830;2023-12-20T02:27:23;5.90;99.90
67870;DHT22;54673;52.262;6.830;2023-12-20T02:29:50;5.90;99.90
67870;DHT22;54673;52.262;6.830;2023-12-20T02:32:19;7.20;99.90
67870;DHT22;54673;52.262;6.830;2023-12-20T02:34:49;5.90;99.90
67870;DHT22;54673;52.262;6.830;2023-12-20T02:37:15;5.90;99.90
67870;DHT22;54673;52.262;6.830;2023-12-20T02:39:41;7.50;99.90
67870;DHT22;54673;52.262;6.830;2023-12-20T02:42:07;7.40;99.90
67870;DHT22;54673;52.262;6.830;2023-12-20T02:44:32;5.80;99.90
67870;DHT22;54673;52.262;6.830;2023-12-20T02:46:58;5.80;99.90
67870;DHT22;54673;52.262;6.830;2023-12-20T02:49:23;5.80;99.90
67870;DHT22;54673;52.262;6.830;2023-12-20T02:51:49;5.80;99.90
67870;DHT22;54673;52.262;6.830;2023-12-20T02:54:14;5.80;99.90
67870;DHT22;54673;52.262;6.830;2023-12-20T02:56:40;5.90;99.90
67870;DHT22;54673;52.262;6.830;2023-12-20T02:59:05;5.80;99.90
67870;DHT22;54673;52.262;6.830;2023-12-20T03:01:33;5.90;99.90
67870;DHT22;54673;52.262;6.830;2023-12-20T03:04:00;7.00;99.90
67870;DHT22;54673;52.262;6.830;2023-12-20T03:06:25;5.70;99.90
67870;DHT22;54673;52.262;6.830;2023-12-20T03:08:51;5.70;99.90
67870;DHT22;54673;52.262;6.830;2023-12-20T03:11:16;7.00;99.90
67870;DHT22;54673;52.262;6.830;2023-12-20T03:13:42;5.70;99.90
67870;DHT22;54673;52.262;6.830;2023-12-20T03:16:09;5.70;99.90
67870;DHT22;54673;52.262;6.830;2023-12-20T03:18:34;5.70;99.90
67870;DHT22;54673;52.262;6.830;2023-12-20T03:21:00;6.30;99.90
67870;DHT22;54673;52.262;6.830;2023-12-20T03:23:25;5.70;99.90
67870;DHT22;54673;52.262;6.830;2023-12-20T03:25:52;5.70;99.90
67870;DHT22;54673;52.262;6.830;2023-12-20T03:28:18;5.70;99.90
67870;DHT22;54673;52.262;6.830;2023-12-20T03:30:44;5.60;99.90
67870;DHT22;54673;52.262;6.830;2023-12-20T03:33:10;5.70;99.90
67870;DHT22;54673;52.262;6.830;2023-12-20T03:35:35;5.70;99.90
67870;DHT22;54673;52.262;6.830;2023-12-20T03:38:01;5.60;99.90
67870;DHT22;54673;52.262;6.830;2023-12-20T03:40:27;5.60;99.90
67870;DHT22;54673;52.262;6.830;2023-12-20T03:42:52;5.60;99.90
67870;DHT22;54673;52.262;6.830;2023-12-20T03:45:18;5.60;99.90
67870;DHT22;54673;52.262;6.830;2023-12-20T03:47:44;5.60;99.90
67870;DHT22;54673;52.262;6.830;2023-12-20T03:50:09;5.60;99.90
67870;DHT22;54673;52.262;6.830;2023-12-20T03:52:35;5.60;99.90
67870;DHT22;54673;52.262;6.830;2023-12-20T03:55:00;5.60;99.90
67870;DHT22;54673;52.262;6.830;2023-12-20T03:57:26;5.60;99.90
67870;DHT22;54673;52.262;6.830;2023-12-20T03:59:51;5.60;99.90
67870;DHT22;54673;52.262;6.830;2023-12-20T04:02:17;5.60;99.90
67870;DHT22;54673;52.262;6.830;2023-12-20T04:04:43;5.60;99.90
67870;DHT22;54673;52.262;6.830;2023-12-20T04:07:09;5.60;99.90
67870;DHT22;54673;52.262;6.830;2023-12-20T04:09:34;6.80;99.90
67870;DHT22;54673;52.262;6.830;2023-12-20T04:12:00;6.00;99.90
67870;DHT22;54673;52.262;6.830;2023-12-20T04:14:26;6.40;99.90
67870;DHT22;54673;52.262;6.830;2023-12-20T04:16:52;5.60;99.90
67870;DHT22;54673;52.262;6.830;2023-12-20T04:19:18;5.50;99.90
67870;DHT22;54673;52.262;6.830;2023-12-20T04:21:43;5.50;99.90
67870;DHT22;54673;52.262;6.830;2023-12-20T04:24:09;5.60;99.90
67870;DHT22;54673;52.262;6.830;2023-12-20T04:26:34;5.60;99.90
67870;DHT22;54673;52.262;6.830;2023-12-20T04:29:00;5.50;99.90
67870;DHT22;54673;52.262;6.830;2023-12-20T04:31:26;5.50;99.90
67870;DHT22;54673;52.262;6.830;2023-12-20T04:33:51;5.50;99.90
67870;DHT22;54673;52.262;6.830;2023-12-20T04:36:17;5.40;99.90
67870;DHT22;54673;52.262;6.830;2023-12-20T04:38:42;5.60;99.90
67870;DHT22;54673;52.262;6.830;2023-12-20T04:41:08;5.60;99.90
67870;DHT22;54673;52.262;6.830;2023-12-20T04:43:33;5.50;99.90
67870;DHT22;54673;52.262;6.830;2023-12-20T04:45:59;5.60;99.90
67870;DHT22;54673;52.262;6.830;2023-12-20T04:48:24;5.60;99.90
67870;DHT22;54673;52.262;6.830;2023-12-20T04:50:50;5.60;99.90
67870;DHT22;54673;52.262;6.830;2023-12-20T04:53:16;5.60;99.90
67870;DHT22;54673;52.262;6.830;2023-12-20T04:55:41;5.60;99.90
67870;DHT22;54673;52.262;6.830;2023-12-20T04:58:07;5.60;99.90
67870;DHT22;54673;52.262;6.830;2023-12-20T05:00:32;5.60;99.90
67870;DHT22;54673;52.262;6.830;2023-12-20T05:02:58;5.60;99.90
67870;DHT22;54673;52.262;6.830;2023-12-20T05:05:23;6.30;99.90
67870;DHT22;54673;52.262;6.830;2023-12-20T05:07:49;5.60;99.90
67870;DHT22;54673;52.262;6.830;2023-12-20T05:10:14;5.60;99.90
67870;DHT22;54673;52.262;6.830;2023-12-20T05:12:40;5.60;99.90
67870;DHT22;54673;52.262;6.830;2023-12-20T05:15:06;5.50;99.90
67870;DHT22;54673;52.262;6.830;2023-12-20T05:17:32;5.60;99.90
67870;DHT22;54673;52.262;6.830;2023-12-20T05:19:58;5.60;99.90
67870;DHT22;54673;52.262;6.830;2023-12-20T05:22:23;7.00;99.90
67870;DHT22;54673;52.262;6.830;2023-12-20T05:24:49;5.60;99.90
67870;DHT22;54673;52.262;6.830;2023-12-20T05:27:15;5.60;99.90
67870;DHT22;54673;52.262;6.830;2023-12-20T05:29:40;6.10;99.90
67870;DHT22;54673;52.262;6.830;2023-12-20T05:32:06;5.60;99.90
67870;DHT22;54673;52.262;6.830;2023-12-20T05:34:32;5.60;99.90
67870;DHT22;54673;52.262;6.830;2023-12-20T05:36:58;5.60;99.90
67870;DHT22;54673;52.262;6.830;2023-12-20T05:39:24;6.70;99.90
67870;DHT22;54673;52.262;6.830;2023-12-20T05:41:49;5.50;99.90
67870;DHT22;54673;52.262;6.830;2023-12-20T05:44:15;5.60;99.90
67870;DHT22;54673;52.262;6.830;2023-12-20T05:46:40;5.60;99.90
67870;DHT22;54673;52.262;6.830;2023-12-20T05:49:06;5.60;99.90
67870;DHT22;54673;52.262;6.830;2023-12-20T05:51:32;5.60;99.90
67870;DHT22;54673;52.262;6.830;2023-12-20T05:53:58;5.60;99.90
67870;DHT22;54673;52.262;6.830;2023-12-20T05:56:24;5.70;99.90
67870;DHT22;54673;52.262;6.830;2023-12-20T05:58:49;5.70;99.90
67870;DHT22;54673;52.262;6.830;2023-12-20T06:01:15;6.50;99.90
67870;DHT22;54673;52.262;6.830;2023-12-20T06:03:42;5.60;99.90
67870;DHT22;54673;52.262;6.830;2023-12-20T06:06:09;5.60;99.90
67870;DHT22;54673;52.262;6.830;2023-12-20T06:08:34;5.70;99.90
67870;DHT22;54673;52.262;6.830;2023-12-20T06:11:00;5.70;99.90
67870;DHT22;54673;52.262;6.830;2023-12-20T06:13:25;5.60;99.90
67870;DHT22;54673;52.262;6.830;2023-12-20T06:15:53;5.60;99.90
67870;DHT22;54673;52.262;6.830;2023-12-20T06:18:19;5.60;99.90
67870;DHT22;54673;52.262;6.830;2023-12-20T06:20:45;5.70;99.90
67870;DHT22;54673;52.262;6.830;2023-12-20T06:23:10;5.60;99.90
67870;DHT22;54673;52.262;6.830;2023-12-20T06:25:36;5.70;99.90
67870;DHT22;54673;52.262;6.830;2023-12-20T06:28:01;5.60;99.90
67870;DHT22;54673;52.262;6.830;2023-12-20T06:30:27;5.70;99.90
67870;DHT22;54673;52.262;6.830;2023-12-20T06:32:54;5.70;99.90
67870;DHT22;54673;52.262;6.830;2023-12-20T06:35:19;5.70;99.90
67870;DHT22;54673;52.262;6.830;2023-12-20T06:37:45;5.70;99.90
67870;DHT22;54673;52.262;6.830;2023-12-20T06:40:11;5.70;99.90
67870;DHT22;54673;52.262;6.830;2023-12-20T06:42:37;5.70;99.90
67870;DHT22;54673;52.262;6.830;2023-12-20T06:45:03;6.30;99.90
67870;DHT22;54673;52.262;6.830;2023-12-20T06:47:29;5.70;99.90
67870;DHT22;54673;52.262;6.830;2023-12-20T06:49:54;5.70;99.90
67870;DHT22;54673;52.262;6.830;2023-12-20T06:52:20;6.30;99.90
67870;DHT22;54673;52.262;6.830;2023-12-20T06:54:45;5.70;99.90
67870;DHT22;54673;52.262;6.830;2023-12-20T06:57:11;6.30;99.90
67870;DHT22;54673;52.262;6.830;2023-12-20T06:59:40;5.70;99.90
67870;DHT22;54673;52.262;6.830;2023-12-20T07:02:06;5.70;99.90
67870;DHT22;54673;52.262;6.830;2023-12-20T07:04:31;5.40;99.90
67870;DHT22;54673;52.262;6.830;2023-12-20T07:06:57;5.60;99.90
67870;DHT22;54673;52.262;6.830;2023-12-20T07:09:26;5.70;99.90
67870;DHT22;54673;52.262;6.830;2023-12-20T07:11:51;5.70;99.90
67870;DHT22;54673;52.262;6.830;2023-12-20T07:14:17;5.70;99.90
67870;DHT22;54673;52.262;6.830;2023-12-20T07:16:43;5.70;99.90
67870;DHT22;54673;52.262;6.830;2023-12-20T07:19:08;5.70;99.90
67870;DHT22;54673;52.262;6.830;2023-12-20T07:21:34;5.70;99.90
67870;DHT22;54673;52.262;6.830;2023-12-20T07:23:59;5.70;99.90
67870;DHT22;54673;52.262;6.830;2023-12-20T07:26:25;5.70;99.90
67870;DHT22;54673;52.262;6.830;2023-12-20T07:28:50;5.80;99.90
67870;DHT22;54673;52.262;6.830;2023-12-20T07:31:16;5.70;99.90
67870;DHT22;54673;52.262;6.830;2023-12-20T07:33:42;5.70;99.90
67870;DHT22;54673;52.262;6.830;2023-12-20T07:36:07;5.70;99.90
67870;DHT22;54673;52.262;6.830;2023-12-20T07:38:33;6.90;99.90
67870;DHT22;54673;52.262;6.830;2023-12-20T07:40:59;5.80;99.90
67870;DHT22;54673;52.262;6.830;2023-12-20T07:43:25;5.80;99.90
67870;DHT22;54673;52.262;6.830;2023-12-20T07:45:50;5.80;99.90
67870;DHT22;54673;52.262;6.830;2023-12-20T07:48:16;5.80;99.90
67870;DHT22;54673;52.262;6.830;2023-12-20T07:50:42;5.80;99.90
67870;DHT22;54673;52.262;6.830;2023-12-20T07:53:08;6.50;99.90
67870;DHT22;54673;52.262;6.830;2023-12-20T07:55:34;7.10;99.90
67870;DHT22;54673;52.262;6.830;2023-12-20T07:58:00;6.70;99.90
67870;DHT22;54673;52.262;6.830;2023-12-20T08:00:26;5.80;99.90
67870;DHT22;54673;52.262;6.830;2023-12-20T08:02:51;7.00;99.90
67870;DHT22;54673;52.262;6.830;2023-12-20T08:05:17;5.80;99.90
67870;DHT22;54673;52.262;6.830;2023-12-20T08:07:42;6.80;99.90
67870;DHT22;54673;52.262;6.830;2023-12-20T08:10:08;5.90;99.90
67870;DHT22;54673;52.262;6.830;2023-12-20T08:12:34;5.90;99.90
67870;DHT22;54673;52.262;6.830;2023-12-20T08:15:00;5.90;99.90
67870;DHT22;54673;52.262;6.830;2023-12-20T08:17:25;5.70;99.90
67870;DHT22;54673;52.262;6.830;2023-12-20T08:19:51;5.80;99.90
67870;DHT22;54673;52.262;6.830;2023-12-20T08:22:17;6.90;99.90
67870;DHT22;54673;52.262;6.830;2023-12-20T08:24:42;5.80;99.90
67870;DHT22;54673;52.262;6.830;2023-12-20T08:27:08;5.90;99.90
67870;DHT22;54673;52.262;6.830;2023-12-20T08:29:35;5.90;99.90
67870;DHT22;54673;52.262;6.830;2023-12-20T08:32:01;5.80;99.90
67870;DHT22;54673;52.262;6.830;2023-12-20T08:34:26;5.90;99.90
67870;DHT22;54673;52.262;6.830;2023-12-20T08:36:52;5.80;99.90
67870;DHT22;54673;52.262;6.830;2023-12-20T08:39:18;6.30;99.90
67870;DHT22;54673;52.262;6.830;2023-12-20T08:41:43;5.90;99.90
67870;DHT22;54673;52.262;6.830;2023-12-20T08:44:09;6.00;99.90
67870;DHT22;54673;52.262;6.830;2023-12-20T08:46:35;5.90;99.90
67870;DHT22;54673;52.262;6.830;2023-12-20T08:49:02;7.30;99.90
67870;DHT22;54673;52.262;6.830;2023-12-20T08:51:27;6.70;99.90
67870;DHT22;54673;52.262;6.830;2023-12-20T08:53:53;6.00;99.90
67870;DHT22;54673;52.262;6.830;2023-12-20T08:56:20;5.80;99.90
67870;DHT22;54673;52.262;6.830;2023-12-20T08:58:46;6.00;99.90
67870;DHT22;54673;52.262;6.830;2023-12-20T09:01:13;4.30;99.90
67870;DHT22;54673;52.262;6.830;2023-12-20T09:03:39;6.00;99.90
67870;DHT22;54673;52.262;6.830;2023-12-20T09:06:05;6.00;99.90
67870;DHT22;54673;52.262;6.830;2023-12-20T09:08:31;6.00;99.90
67870;DHT22;54673;52.262;6.830;2023-12-20T09:10:57;7.40;99.90
67870;DHT22;54673;52.262;6.830;2023-12-20T09:13:23;6.00;99.90
67870;DHT22;54673;52.262;6.830;2023-12-20T09:15:57;6.00;99.90
67870;DHT22;54673;52.262;6.830;2023-12-20T09:18:23;6.10;99.90
67870;DHT22;54673;52.262;6.830;2023-12-20T09:20:49;6.10;99.90
67870;DHT22;54673;52.262;6.830;2023-12-20T09:23:15;6.10;99.90
67870;DHT22;54673;52.262;6.830;2023-12-20T09:25:41;6.10;99.90
67870;DHT22;54673;52.262;6.830;2023-12-20T09:28:07;6.00;99.90
67870;DHT22;54673;52.262;6.830;2023-12-20T09:30:32;6.10;99.90
67870;DHT22;54673;52.262;6.830;2023-12-20T09:32:58;6.10;99.90
67870;DHT22;54673;52.262;6.830;2023-12-20T09:35:24;6.10;99.90
67870;DHT22;54673;52.262;6.830;2023-12-20T09:37:51;6.10;99.90
67870;DHT22;54673;52.262;6.830;2023-12-20T09:40:20;6.10;99.90
67870;DHT22;54673;52.262;6.830;2023-12-20T09:45:21;6.10;99.90
67870;DHT22;54673;52.262;6.830;2023-12-20T09:47:53;6.60;99.90
67870;DHT22;54673;52.262;6.830;2023-12-20T09:50:20;6.10;99.90
67870;DHT22;54673;52.262;6.830;2023-12-20T09:52:51;4.80;99.90
67870;DHT22;54673;52.262;6.830;2023-12-20T09:55:20;6.20;99.90
67870;DHT22;54673;52.262;6.830;2023-12-20T09:57:47;6.20;99.90
67870;DHT22;54673;52.262;6.830;2023-12-20T10:00:14;6.20;99.90
67870;DHT22;54673;52.262;6.830;2023-12-20T10:02:46;6.20;99.90
67870;DHT22;54673;52.262;6.830;2023-12-20T10:05:17;6.20;99.90
67870;DHT22;54673;52.262;6.830;2023-12-20T10:07:46;6.20;99.90
67870;DHT22;54673;52.262;6.830;2023-12-20T10:10:13;6.20;99.90
67870;DHT22;54673;52.262;6.830;2023-12-20T10:12:39;6.20;99.90
67870;DHT22;54673;52.262;6.830;2023-12-20T10:15:06;5.90;99.90
67870;DHT22;54673;52.262;6.830;2023-12-20T10:17:32;6.20;99.90
67870;DHT22;54673;52.262;6.830;2023-12-20T10:19:58;4.50;99.90
67870;DHT22;54673;52.262;6.830;2023-12-20T10:22:24;6.30;99.90
67870;DHT22;54673;52.262;6.830;2023-12-20T10:24:50;6.30;99.90
67870;DHT22;54673;52.262;6.830;2023-12-20T10:27:18;6.30;99.90
67870;DHT22;54673;52.262;6.830;2023-12-20T10:29:45;6.30;99.90
67870;DHT22;54673;52.262;6.830;2023-12-20T10:32:25;6.30;99.90
67870;DHT22;54673;52.262;6.830;2023-12-20T10:34:51;6.30;99.90
67870;DHT22;54673;52.262;6.830;2023-12-20T10:37:17;6.30;99.90
67870;DHT22;54673;52.262;6.830;2023-12-20T10:39:43;6.40;99.90
67870;DHT22;54673;52.262;6.830;2023-12-20T10:42:13;6.40;99.90
67870;DHT22;54673;52.262;6.830;2023-12-20T10:44:39;6.40;99.90
67870;DHT22;54673;52.262;6.830;2023-12-20T10:47:06;6.40;99.90
67870;DHT22;54673;52.262;6.830;2023-12-20T10:49:36;6.40;99.90
67870;DHT22;54673;52.262;6.830;2023-12-20T10:52:04;6.40;99.90
67870;DHT22;54673;52.262;6.830;2023-12-20T10:54:31;6.40;99.90
67870;DHT22;54673;52.262;6.830;2023-12-20T10:56:57;6.40;99.90
67870;DHT22;54673;52.262;6.830;2023-12-20T10:59:24;6.50;99.90
67870;DHT22;54673;52.262;6.830;2023-12-20T11:01:50;6.50;99.90
67870;DHT22;54673;52.262;6.830;2023-12-20T11:04:24;6.50;99.90
67870;DHT22;54673;52.262;6.830;2023-12-20T11:06:58;6.50;99.90
67870;DHT22;54673;52.262;6.830;2023-12-20T11:09:38;6.50;99.90
67870;DHT22;54673;52.262;6.830;2023-12-20T11:12:18;6.50;99.90
67870;DHT22;54673;52.262;6.830;2023-12-20T11:14:51;6.50;99.90
67870;DHT22;54673;52.262;6.830;2023-12-20T11:17:17;6.60;99.90
67870;DHT22;54673;52.262;6.830;2023-12-20T11:20:04;6.60;99.90
67870;DHT22;54673;52.262;6.830;2023-12-20T11:22:31;6.60;99.90
67870;DHT22;54673;52.262;6.830;2023-12-20T11:25:10;6.60;99.90
67870;DHT22;54673;52.262;6.830;2023-12-20T11:27:40;6.60;99.90
67870;DHT22;54673;52.262;6.830;2023-12-20T11:30:06;6.70;99.90
67870;DHT22;54673;52.262;6.830;2023-12-20T11:32:35;6.30;99.90
67870;DHT22;54673;52.262;6.830;2023-12-20T11:35:17;6.70;99.90
67870;DHT22;54673;52.262;6.830;2023-12-20T11:37:45;6.70;99.90
67870;DHT22;54673;52.262;6.830;2023-12-20T11:40:17;6.70;99.90
67870;DHT22;54673;52.262;6.830;2023-12-20T11:42:49;5.80;99.90
67870;DHT22;54673;52.262;6.830;2023-12-20T11:45:20;6.80;99.90
67870;DHT22;54673;52.262;6.830;2023-12-20T11:47:48;6.70;99.90
67870;DHT22;54673;52.262;6.830;2023-12-20T11:50:19;6.80;99.90
67870;DHT22;54673;52.262;6.830;2023-12-20T11:52:45;6.80;99.90
67870;DHT22;54673;52.262;6.830;2023-12-20T11:55:11;6.80;99.90
67870;DHT22;54673;52.262;6.830;2023-12-20T11:57:38;6.80;99.90
67870;DHT22;54673;52.262;6.830;2023-12-20T12:00:04;6.70;99.90
67870;DHT22;54673;52.262;6.830;2023-12-20T12:02:32;6.80;99.90
67870;DHT22;54673;52.262;6.830;2023-12-20T12:04:59;6.80;99.90
67870;DHT22;54673;52.262;6.830;2023-12-20T12:07:27;6.80;99.90
67870;DHT22;54673;52.262;6.830;2023-12-20T12:09:53;6.80;99.90
67870;DHT22;54673;52.262;6.830;2023-12-20T12:12:19;6.80;99.90
67870;DHT22;54673;52.262;6.830;2023-12-20T12:14:45;8.10;99.90
67870;DHT22;54673;52.262;6.830;2023-12-20T12:17:12;6.80;99.90
67870;DHT22;54673;52.262;6.830;2023-12-20T12:19:39;6.80;99.90
67870;DHT22;54673;52.262;6.830;2023-12-20T12:22:12;6.80;99.90
67870;DHT22;54673;52.262;6.830;2023-12-20T12:24:43;6.80;99.90
67870;DHT22;54673;52.262;6.830;2023-12-20T12:27:09;6.80;99.90
67870;DHT22;54673;52.262;6.830;2023-12-20T12:29:36;6.80;99.90
67870;DHT22;54673;52.262;6.830;2023-12-20T12:32:09;6.80;99.90
67870;DHT22;54673;52.262;6.830;2023-12-20T12:34:35;6.90;99.90
67870;DHT22;54673;52.262;6.830;2023-12-20T12:37:02;7.80;99.90
67870;DHT22;54673;52.262;6.830;2023-12-20T12:39:28;6.80;99.90
67870;DHT22;54673;52.262;6.830;2023-12-20T12:41:55;6.80;99.90
67870;DHT22;54673;52.262;6.830;2023-12-20T12:44:21;6.80;99.90
67870;DHT22;54673;52.262;6.830;2023-12-20T12:46:49;6.80;99.90
67870;DHT22;54673;52.262;6.830;2023-12-20T12:49:19;6.80;99.90
67870;DHT22;54673;52.262;6.830;2023-12-20T12:51:47;6.80;99.90
67870;DHT22;54673;52.262;6.830;2023-12-20T12:54:12;6.80;99.90
67870;DHT22;54673;52.262;6.830;2023-12-20T12:56:39;6.80;99.90
67870;DHT22;54673;52.262;6.830;2023-12-20T12:59:05;6.80;99.90
67870;DHT22;54673;52.262;6.830;2023-12-20T13:01:31;6.80;99.90
67870;DHT22;54673;52.262;6.830;2023-12-20T13:03:57;6.80;99.90
67870;DHT22;54673;52.262;6.830;2023-12-20T13:06:23;6.80;99.90
67870;DHT22;54673;52.262;6.830;2023-12-20T13:08:49;6.70;99.90
67870;DHT22;54673;52.262;6.830;2023-12-20T13:11:15;6.80;99.90
67870;DHT22;54673;52.262;6.830;2023-12-20T13:13:41;6.80;99.90
67870;DHT22;54673;52.262;6.830;2023-12-20T13:16:07;6.80;99.90
67870;DHT22;54673;52.262;6.830;2023-12-20T13:18:33;6.80;99.90
67870;DHT22;54673;52.262;6.830;2023-12-20T13:20:58;6.80;99.90
67870;DHT22;54673;52.262;6.830;2023-12-20T13:23:24;6.60;99.90
67870;DHT22;54673;52.262;6.830;2023-12-20T13:25:50;6.80;99.90
67870;DHT22;54673;52.262;6.830;2023-12-20T13:28:16;6.80;99.90
67870;DHT22;54673;52.262;6.830;2023-12-20T13:30:42;6.80;99.90
67870;DHT22;54673;52.262;6.830;2023-12-20T13:33:07;6.30;99.90
67870;DHT22;54673;52.262;6.830;2023-12-20T13:35:34;6.80;99.90
67870;DHT22;54673;52.262;6.830;2023-12-20T13:38:00;5.30;99.90
67870;DHT22;54673;52.262;6.830;2023-12-20T13:40:26;6.80;99.90
67870;DHT22;54673;52.262;6.830;2023-12-20T13:42:52;6.90;99.90
67870;DHT22;54673;52.262;6.830;2023-12-20T13:45:18;6.80;99.90
67870;DHT22;54673;52.262;6.830;2023-12-20T13:47:43;6.80;99.90
67870;DHT22;54673;52.262;6.830;2023-12-20T13:50:09;6.80;99.90
67870;DHT22;54673;52.262;6.830;2023-12-20T13:52:35;6.80;99.90
67870;DHT22;54673;52.262;6.830;2023-12-20T13:55:01;6.70;99.90
67870;DHT22;54673;52.262;6.830;2023-12-20T13:57:27;6.80;99.90
67870;DHT22;54673;52.262;6.830;2023-12-20T13:59:55;6.80;99.90
67870;DHT22;54673;52.262;6.830;2023-12-20T14:02:23;6.80;99.90
67870;DHT22;54673;52.262;6.830;2023-12-20T14:04:48;6.80;99.90
67870;DHT22;54673;52.262;6.830;2023-12-20T14:07:14;6.80;99.90
67870;DHT22;54673;52.262;6.830;2023-12-20T14:09:40;6.80;99.90
67870;DHT22;54673;52.262;6.830;2023-12-20T14:12:11;6.80;99.90
67870;DHT22;54673;52.262;6.830;2023-12-20T14:14:37;7.60;99.90
67870;DHT22;54673;52.262;6.830;2023-12-20T14:17:03;7.40;99.90
67870;DHT22;54673;52.262;6.830;2023-12-20T14:19:29;6.80;99.90
67870;DHT22;54673;52.262;6.830;2023-12-20T14:21:55;6.80;99.90
67870;DHT22;54673;52.262;6.830;2023-12-20T14:24:21;6.80;99.90
67870;DHT22;54673;52.262;6.830;2023-12-20T14:26:46;6.80;99.90
67870;DHT22;54673;52.262;6.830;2023-12-20T14:29:12;6.80;99.90
67870;DHT22;54673;52.262;6.830;2023-12-20T14:31:38;6.80;99.90
67870;DHT22;54673;52.262;6.830;2023-12-20T14:34:05;6.80;99.90
67870;DHT22;54673;52.262;6.830;2023-12-20T14:36:32;6.80;99.90
67870;DHT22;54673;52.262;6.830;2023-12-20T14:38:57;6.80;99.90
67870;DHT22;54673;52.262;6.830;2023-12-20T14:41:23;6.80;99.90
67870;DHT22;54673;52.262;6.830;2023-12-20T14:43:50;6.80;99.90
67870;DHT22;54673;52.262;6.830;2023-12-20T14:46:17;6.80;99.90
67870;DHT22;54673;52.262;6.830;2023-12-20T14:48:43;6.80;99.90
67870;DHT22;54673;52.262;6.830;2023-12-20T14:51:09;7.90;99.90
67870;DHT22;54673;52.262;6.830;2023-12-20T14:53:37;6.80;99.90
67870;DHT22;54673;52.262;6.830;2023-12-20T14:56:04;6.80;99.90
67870;DHT22;54673;52.262;6.830;2023-12-20T14:58:30;6.80;99.90
67870;DHT22;54673;52.262;6.830;2023-12-20T15:00:56;6.80;99.90
67870;DHT22;54673;52.262;6.830;2023-12-20T15:03:22;6.80;99.90
67870;DHT22;54673;52.262;6.830;2023-12-20T15:05:48;6.80;99.90
67870;DHT22;54673;52.262;6.830;2023-12-20T15:08:14;6.80;99.90
67870;DHT22;54673;52.262;6.830;2023-12-20T15:10:40;6.80;99.90
67870;DHT22;54673;52.262;6.830;2023-12-20T15:13:06;6.80;99.90
67870;DHT22;54673;52.262;6.830;2023-12-20T15:15:31;6.80;99.90
67870;DHT22;54673;52.262;6.830;2023-12-20T15:17:59;5.40;99.90
67870;DHT22;54673;52.262;6.830;2023-12-20T15:20:25;6.80;99.90
67870;DHT22;54673;52.262;6.830;2023-12-20T15:22:51;6.80;99.90
67870;DHT22;54673;52.262;6.830;2023-12-20T15:25:18;6.90;99.90
67870;DHT22;54673;52.262;6.830;2023-12-20T15:27:48;7.70;99.90
67870;DHT22;54673;52.262;6.830;2023-12-20T15:30:19;8.10;99.90
67870;DHT22;54673;52.262;6.830;2023-12-20T15:32:45;6.80;99.90
67870;DHT22;54673;52.262;6.830;2023-12-20T15:35:11;6.80;99.90
67870;DHT22;54673;52.262;6.830;2023-12-20T15:37:40;6.80;99.90
67870;DHT22;54673;52.262;6.830;2023-12-20T15:40:09;6.80;99.90
67870;DHT22;54673;52.262;6.830;2023-12-20T15:42:37;6.80;99.90